Time;durP1;ratioP1;P1;durP2;ratioP2;P2;SDS_P1;SDS_P2;PMS_P1;PMS_P2;Temp;Humidity;BMP_temperature;BMP_pressure;BME280_temperature;BME280_humidity;BME280_pressure;Samples;Min_cycle;Max_cycle;Signal;HPM_P1;HPM_P2
2023/08/30 00:01:05;;;;;;;;;;;26.00;60.70;;;;;;5078270;28;19924;-60
2023/08/30 00:03:32;;;;;;;;;;;26.00;60.70;;;;;;5091916;28;19931;-59
2023/08/30 00:06:04;;;;;;;;;;;26.00;60.70;;;;;;5092587;28;19924;-59
2023/08/30 00:08:31;;;;;;;;;;;26.00;60.70;;;;;;5093707;28;20269;-59
2023/08/30 00:10:58;;;;;;;;;;;26.00;60.70;;;;;;5091133;28;20034;-59
2023/08/30 00:13:26;;;;;;;;;;;26.00;60.70;;;;;;5086945;28;20385;-59
2023/08/30 00:15:53;;;;;;;;;;;26.00;60.70;;;;;;5091966;28;19928;-59
2023/08/30 00:18:20;;;;;;;;;;;26.00;60.80;;;;;;5088129;28;19924;-60
2023/08/30 00:20:47;;;;;;;;;;;26.00;60.70;;;;;;5092496;28;19931;-60
2023/08/30 00:23:17;;;;;;;;;;;26.00;60.70;;;;;;5092485;28;19979;-59
2023/08/30 00:25:44;;;;;;;;;;;26.00;60.70;;;;;;5092682;28;20017;-60
2023/08/30 00:28:11;;;;;;;;;;;26.00;60.70;;;;;;5086218;28;20027;-59
2023/08/30 00:30:38;;;;;;;;;;;26.00;60.70;;;;;;5092415;28;19924;-59
2023/08/30 00:33:05;;;;;;;;;;;26.00;60.70;;;;;;5092293;28;20227;-60
2023/08/30 00:35:32;;;;;;;;;;;26.00;60.70;;;;;;5092295;28;19924;-59
2023/08/30 00:37:59;;;;;;;;;;;26.00;60.70;;;;;;5092719;28;19963;-59
2023/08/30 00:40:26;;;;;;;;;;;26.00;60.70;;;;;;5092434;28;19924;-59
2023/08/30 00:42:53;;;;;;;;;;;26.00;60.70;;;;;;5093022;28;20346;-60
2023/08/30 00:45:20;;;;;;;;;;;26.00;60.70;;;;;;5091641;28;19924;-59
2023/08/30 00:47:47;;;;;;;;;;;26.00;60.70;;;;;;5092527;28;20011;-60
2023/08/30 00:50:14;;;;;;;;;;;26.00;60.70;;;;;;5092203;28;19931;-60
2023/08/30 00:52:41;;;;;;;;;;;25.90;60.60;;;;;;5092886;28;20408;-59
2023/08/30 00:55:09;;;;;;;;;;;26.00;60.70;;;;;;5089674;28;19925;-60
2023/08/30 00:57:36;;;;;;;;;;;26.00;60.60;;;;;;5072305;28;19968;-59
2023/08/30 01:00:05;;;;;;;;;;;26.00;60.70;;;;;;5072851;28;20059;-60
2023/08/30 01:02:32;;;;;;;;;;;26.00;60.70;;;;;;5071572;28;20292;-59
2023/08/30 01:04:59;;;;;;;;;;;26.00;60.60;;;;;;5072046;28;19924;-59
2023/08/30 01:07:27;;;;;;;;;;;26.00;60.60;;;;;;5070964;28;19924;-59
2023/08/30 01:09:54;;;;;;;;;;;26.00;60.60;;;;;;5071337;28;20369;-60
2023/08/30 01:12:24;;;;;;;;;;;25.90;60.60;;;;;;5088745;28;19971;-59
2023/08/30 01:14:53;;;;;;;;;;;26.00;60.60;;;;;;5090030;28;19993;-60
2023/08/30 01:17:22;;;;;;;;;;;26.00;60.60;;;;;;5093253;28;20014;-59
2023/08/30 01:19:58;;;;;;;;;;;26.00;60.60;;;;;;5096536;28;20030;-59
2023/08/30 01:22:43;;;;;;;;;;;26.00;60.60;;;;;;5096132;28;19970;-59
2023/08/30 01:25:30;;;;;;;;;;;26.00;60.60;;;;;;5095445;28;20018;-59
2023/08/30 01:27:58;;;;;;;;;;;26.00;60.50;;;;;;5089468;28;20391;-60
2023/08/30 01:30:26;;;;;;;;;;;26.00;60.50;;;;;;5089337;28;19959;-59
2023/08/30 01:32:55;;;;;;;;;;;26.00;60.50;;;;;;5087697;28;19978;-60
2023/08/30 01:35:23;;;;;;;;;;;26.00;60.40;;;;;;5076135;28;19924;-59
2023/08/30 01:37:51;;;;;;;;;;;26.00;60.40;;;;;;5075614;28;19925;-60
2023/08/30 01:40:18;;;;;;;;;;;26.00;60.40;;;;;;5095588;28;19924;-60
2023/08/30 01:42:46;;;;;;;;;;;26.00;60.40;;;;;;5095379;28;19924;-59
2023/08/30 01:45:14;;;;;;;;;;;26.00;60.30;;;;;;5095365;28;19924;-59
2023/08/30 01:47:42;;;;;;;;;;;26.00;60.30;;;;;;5095373;28;19924;-59
2023/08/30 01:50:10;;;;;;;;;;;26.00;60.30;;;;;;5093232;28;19928;-59
2023/08/30 01:52:37;;;;;;;;;;;26.00;60.20;;;;;;5074478;28;19928;-59
2023/08/30 01:55:04;;;;;;;;;;;26.00;60.20;;;;;;5074244;28;19925;-60
2023/08/30 01:57:31;;;;;;;;;;;26.00;60.20;;;;;;5077250;28;20021;-59
2023/08/30 01:59:58;;;;;;;;;;;26.00;60.10;;;;;;5074600;28;19964;-60
2023/08/30 02:02:28;;;;;;;;;;;26.00;60.10;;;;;;5077127;28;19971;-59
2023/08/30 02:04:55;;;;;;;;;;;26.00;60.10;;;;;;5074670;28;20356;-59
2023/08/30 02:07:25;;;;;;;;;;;26.00;60.10;;;;;;5072598;28;19925;-60
2023/08/30 02:09:58;;;;;;;;;;;26.00;60.00;;;;;;5074625;28;20409;-60
2023/08/30 02:12:30;;;;;;;;;;;26.00;60.00;;;;;;5073972;28;19939;-59
2023/08/30 02:14:57;;;;;;;;;;;26.00;60.10;;;;;;5073349;28;19947;-59
2023/08/30 02:17:25;;;;;;;;;;;26.00;60.10;;;;;;5073379;28;19965;-60
2023/08/30 02:19:53;;;;;;;;;;;26.00;60.10;;;;;;5074678;28;20294;-60
2023/08/30 02:22:20;;;;;;;;;;;26.00;60.10;;;;;;5074607;28;19925;-59
2023/08/30 02:24:47;;;;;;;;;;;26.00;60.10;;;;;;5074266;28;20381;-59
2023/08/30 02:27:14;;;;;;;;;;;26.00;60.10;;;;;;5073551;28;19967;-60
2023/08/30 02:29:41;;;;;;;;;;;26.00;60.10;;;;;;5072771;28;19972;-59
2023/08/30 02:32:08;;;;;;;;;;;26.00;60.20;;;;;;5073558;28;19925;-59
2023/08/30 02:34:35;;;;;;;;;;;26.00;60.20;;;;;;5074141;28;20389;-59
2023/08/30 02:37:02;;;;;;;;;;;25.90;60.10;;;;;;5073251;28;19946;-61
2023/08/30 02:39:29;;;;;;;;;;;26.00;60.20;;;;;;5074143;28;19964;-60
2023/08/30 02:41:56;;;;;;;;;;;25.90;60.20;;;;;;5080646;28;19963;-59
2023/08/30 02:44:23;;;;;;;;;;;25.90;60.20;;;;;;5090253;28;20478;-59
2023/08/30 02:46:50;;;;;;;;;;;25.90;60.20;;;;;;5077721;28;19932;-59
2023/08/30 02:49:17;;;;;;;;;;;25.90;60.20;;;;;;5090103;28;20369;-59
2023/08/30 02:51:44;;;;;;;;;;;25.90;60.20;;;;;;5077264;28;19924;-59
2023/08/30 07:55:36;;;;;;;;;;;18.80;55.60;;;;;;5076273;28;19985;-66
2023/08/30 07:58:03;;;;;;;;;;;18.80;57.10;;;;;;5075277;28;19935;-66
2023/08/30 08:00:30;;;;;;;;;;;18.80;57.10;;;;;;5074549;28;19932;-65
2023/08/30 08:02:57;;;;;;;;;;;18.80;55.30;;;;;;5072125;28;19932;-66
2023/08/30 08:05:24;;;;;;;;;;;18.90;57.00;;;;;;5076539;28;20280;-65
2023/08/30 08:07:53;;;;;;;;;;;18.90;58.80;;;;;;5075398;28;19940;-65
2023/08/30 08:10:20;;;;;;;;;;;18.80;57.80;;;;;;5066178;28;19933;-66
2023/08/30 08:12:47;;;;;;;;;;;18.80;57.60;;;;;;5066010;28;20351;-65
2023/08/30 08:15:14;;;;;;;;;;;18.80;58.20;;;;;;5075197;28;20042;-66
2023/08/30 08:17:41;;;;;;;;;;;18.80;58.20;;;;;;5078080;28;19924;-66
2023/08/30 08:20:10;;;;;;;;;;;18.80;58.40;;;;;;5073185;28;19932;-65
2023/08/30 08:22:36;;;;;;;;;;;18.80;57.50;;;;;;5076073;28;20007;-65
2023/08/30 08:25:04;;;;;;;;;;;18.80;58.50;;;;;;5075071;28;19928;-66
2023/08/30 08:27:31;;;;;;;;;;;18.90;57.50;;;;;;5076696;28;19924;-66
2023/08/30 08:29:57;;;;;;;;;;;19.00;57.50;;;;;;5077220;28;20009;-65
2023/08/30 08:32:25;;;;;;;;;;;19.00;57.70;;;;;;5072474;28;20039;-65
2023/08/30 08:34:52;;;;;;;;;;;19.00;58.40;;;;;;5079215;28;20273;-65
2023/08/30 08:37:19;;;;;;;;;;;19.00;58.30;;;;;;5083671;28;19928;-64
2023/08/30 08:39:46;;;;;;;;;;;19.00;56.80;;;;;;5075455;28;20013;-65
2023/08/30 08:42:13;;;;;;;;;;;19.00;57.50;;;;;;5078536;28;19924;-65
2023/08/30 08:44:46;;;;;;;;;;;19.00;58.20;;;;;;5079925;28;19924;-65
2023/08/30 08:47:13;;;;;;;;;;;19.00;56.60;;;;;;5078434;28;19925;-66
2023/08/30 08:49:40;;;;;;;;;;;19.00;57.30;;;;;;5077796;28;20376;-66
2023/08/30 08:52:07;;;;;;;;;;;19.10;57.90;;;;;;5069871;28;19938;-65
2023/08/30 08:54:51;;;;;;;;;;;19.10;58.30;;;;;;5078311;28;19933;-65
2023/08/30 08:57:19;;;;;;;;;;;19.10;58.70;;;;;;5072111;28;19928;-66
2023/08/30 08:59:46;;;;;;;;;;;19.10;58.20;;;;;;5079993;28;19932;-65
2023/08/30 09:02:14;;;;;;;;;;;19.10;57.70;;;;;;5079781;28;19924;-66
2023/08/30 09:04:41;;;;;;;;;;;19.10;58.30;;;;;;5077324;28;19924;-65
2023/08/30 09:07:09;;;;;;;;;;;19.10;57.20;;;;;;5073275;28;19938;-67
2023/08/30 09:12:03;;;;;;;;;;;19.10;56.30;;;;;;5079423;28;20370;-68
2023/08/30 09:14:30;;;;;;;;;;;19.10;57.30;;;;;;5079022;28;19931;-66
2023/08/30 09:16:58;;;;;;;;;;;19.10;58.00;;;;;;5083033;28;20007;-66
2023/08/30 09:19:25;;;;;;;;;;;19.10;54.80;;;;;;5078173;28;20015;-67
2023/08/30 09:21:53;;;;;;;;;;;19.10;56.90;;;;;;5075637;28;20283;-66
2023/08/30 09:24:20;;;;;;;;;;;19.10;56.60;;;;;;5074494;28;20023;-66
2023/08/30 09:26:51;;;;;;;;;;;19.20;57.40;;;;;;5069085;28;19932;-65
2023/08/30 09:29:18;;;;;;;;;;;19.20;57.60;;;;;;5072913;28;20578;-66
2023/08/30 09:31:46;;;;;;;;;;;19.30;54.90;;;;;;5079283;28;21561;-65
2023/08/30 09:34:13;;;;;;;;;;;19.30;57.00;;;;;;5072318;28;19987;-66
2023/08/30 09:36:41;;;;;;;;;;;19.30;57.50;;;;;;5072768;28;20019;-65
2023/08/30 09:39:12;;;;;;;;;;;19.40;57.60;;;;;;5067799;28;20681;-65
2023/08/30 09:41:44;;;;;;;;;;;19.50;54.10;;;;;;5076762;28;19943;-65
2023/08/30 09:44:13;;;;;;;;;;;19.50;56.50;;;;;;5076586;28;19932;-66
2023/08/30 09:46:44;;;;;;;;;;;19.50;56.70;;;;;;5074844;28;20062;-66
2023/08/30 09:49:20;;;;;;;;;;;19.50;57.40;;;;;;5073922;28;19943;-66
2023/08/30 09:51:49;;;;;;;;;;;19.50;55.60;;;;;;5077285;28;20010;-66
2023/08/30 09:54:17;;;;;;;;;;;19.50;56.80;;;;;;5072158;28;20011;-66
2023/08/30 09:56:47;;;;;;;;;;;19.60;58.40;;;;;;5079012;28;19932;-66
2023/08/30 09:59:15;;;;;;;;;;;19.60;57.50;;;;;;5078639;28;19994;-66
2023/08/30 10:01:43;;;;;;;;;;;19.60;57.60;;;;;;5077959;28;20361;-66
2023/08/30 10:04:10;;;;;;;;;;;19.70;58.00;;;;;;5076495;28;19932;-66
2023/08/30 10:06:38;;;;;;;;;;;19.70;57.20;;;;;;5075341;28;20385;-66
2023/08/30 10:09:07;;;;;;;;;;;19.80;57.60;;;;;;5077467;28;20436;-66
2023/08/30 10:11:35;;;;;;;;;;;19.80;56.20;;;;;;5081018;28;19978;-66
2023/08/30 10:14:04;;;;;;;;;;;19.80;57.40;;;;;;5079271;28;19924;-66
2023/08/30 10:16:41;;;;;;;;;;;19.90;58.00;;;;;;5079310;28;20018;-66
2023/08/30 10:19:14;;;;;;;;;;;19.90;57.90;;;;;;5076627;28;20019;-66
2023/08/30 10:21:43;;;;;;;;;;;19.90;57.10;;;;;;5076676;28;19971;-65
2023/08/30 10:24:12;;;;;;;;;;;19.90;57.40;;;;;;5078756;28;20343;-66
2023/08/30 10:26:57;;;;;;;;;;;20.00;57.80;;;;;;5082971;28;19924;-66
2023/08/30 10:29:25;;;;;;;;;;;20.00;58.00;;;;;;5079437;28;19928;-66
2023/08/30 10:31:53;;;;;;;;;;;20.00;57.70;;;;;;5083378;28;19924;-65
2023/08/30 10:34:21;;;;;;;;;;;20.00;58.00;;;;;;5071765;28;19933;-65
2023/08/30 10:37:03;;;;;;;;;;;20.10;58.80;;;;;;5076200;28;20357;-66
2023/08/30 10:39:38;;;;;;;;;;;20.10;58.30;;;;;;5086727;28;20376;-66
2023/08/30 10:42:15;;;;;;;;;;;20.20;57.90;;;;;;5075211;28;20269;-66
2023/08/30 10:44:59;;;;;;;;;;;20.30;57.80;;;;;;5075507;28;19931;-66
2023/08/30 10:47:30;;;;;;;;;;;20.30;58.50;;;;;;5073053;28;19928;-66
2023/08/30 10:49:59;;;;;;;;;;;20.30;58.20;;;;;;5074271;28;20445;-65
2023/08/30 10:52:27;;;;;;;;;;;20.40;57.30;;;;;;5073611;28;19935;-67
2023/08/30 10:55:04;;;;;;;;;;;20.40;57.60;;;;;;5075935;28;19939;-68
2023/08/30 10:57:33;;;;;;;;;;;20.50;56.60;;;;;;5074459;28;20672;-68
2023/08/30 11:00:04;;;;;;;;;;;20.40;57.30;;;;;;5073174;28;19932;-68
2023/08/30 11:02:32;;;;;;;;;;;20.40;57.30;;;;;;5078521;28;20273;-68
2023/08/30 11:04:59;;;;;;;;;;;20.40;55.10;;;;;;5075259;28;19932;-68
2023/08/30 11:07:26;;;;;;;;;;;20.40;56.30;;;;;;5069137;28;19929;-67
2023/08/30 11:09:53;;;;;;;;;;;20.40;57.30;;;;;;5072201;28;20025;-68
2023/08/30 11:12:29;;;;;;;;;;;20.40;56.60;;;;;;5089608;27;19924;-69
2023/08/30 11:14:56;;;;;;;;;;;20.40;57.20;;;;;;5055958;28;20304;-67
2023/08/30 11:17:24;;;;;;;;;;;20.30;57.30;;;;;;5055227;28;19974;-63
2023/08/30 11:19:56;;;;;;;;;;;20.30;55.50;;;;;;5064143;28;20007;-63
2023/08/30 11:22:23;;;;;;;;;;;20.20;55.40;;;;;;5067178;28;19982;-62
2023/08/30 11:24:51;;;;;;;;;;;20.20;55.60;;;;;;5064207;28;22179;-62
2023/08/30 11:27:18;;;;;;;;;;;20.20;57.80;;;;;;5060959;28;20288;-63
2023/08/30 11:29:45;;;;;;;;;;;20.20;57.20;;;;;;5058483;28;20019;-63
2023/08/30 11:32:13;;;;;;;;;;;20.20;57.60;;;;;;5054892;28;19929;-63
2023/08/30 11:34:40;;;;;;;;;;;20.20;58.40;;;;;;5060419;28;20019;-62
2023/08/30 11:37:07;;;;;;;;;;;20.20;57.40;;;;;;5061844;28;19925;-61
2023/08/30 11:39:35;;;;;;;;;;;20.20;57.50;;;;;;5063235;28;20459;-61
2023/08/30 11:42:05;;;;;;;;;;;20.10;58.10;;;;;;5060968;28;19935;-61
2023/08/30 11:44:45;;;;;;;;;;;20.20;58.40;;;;;;5062017;28;20051;-61
2023/08/30 11:47:18;;;;;;;;;;;20.20;57.90;;;;;;5062003;28;19928;-61
2023/08/30 11:49:46;;;;;;;;;;;20.20;57.20;;;;;;5061036;28;20019;-62
2023/08/30 11:52:13;;;;;;;;;;;20.20;57.70;;;;;;5064650;28;20027;-61
2023/08/30 11:54:40;;;;;;;;;;;20.20;56.90;;;;;;5062849;28;19971;-62
2023/08/30 11:57:08;;;;;;;;;;;20.30;57.20;;;;;;5062489;28;19925;-62
2023/08/30 11:59:35;;;;;;;;;;;20.30;57.90;;;;;;5058345;28;19968;-61
2023/08/30 12:02:03;;;;;;;;;;;20.20;57.10;;;;;;5060369;28;19925;-62
2023/08/30 12:04:30;;;;;;;;;;;20.30;57.80;;;;;;5060167;28;19978;-61
2023/08/30 12:06:59;;;;;;;;;;;20.30;57.50;;;;;;5061956;28;19960;-61
2023/08/30 12:09:32;;;;;;;;;;;20.30;57.10;;;;;;5058585;28;19932;-62
2023/08/30 12:12:09;;;;;;;;;;;20.30;57.50;;;;;;5061272;28;20020;-61
2023/08/30 12:14:37;;;;;;;;;;;20.30;57.00;;;;;;5060921;28;19951;-60
2023/08/30 12:17:05;;;;;;;;;;;20.30;57.90;;;;;;5062199;28;19928;-61
2023/08/30 12:19:32;;;;;;;;;;;20.30;58.00;;;;;;5065030;28;19925;-60
2023/08/30 12:22:03;;;;;;;;;;;20.30;58.20;;;;;;5060643;28;20452;-60
2023/08/30 12:24:44;;;;;;;;;;;20.30;57.90;;;;;;5051696;28;19929;-61
2023/08/30 12:27:12;;;;;;;;;;;20.30;58.00;;;;;;5048371;28;19932;-63
2023/08/30 12:29:39;;;;;;;;;;;20.30;58.00;;;;;;5049425;28;19936;-62
2023/08/30 12:32:07;;;;;;;;;;;20.30;58.50;;;;;;5046884;28;19982;-61
2023/08/30 12:34:35;;;;;;;;;;;20.30;57.80;;;;;;5043951;28;19943;-61
2023/08/30 12:37:03;;;;;;;;;;;20.30;57.70;;;;;;5046865;28;19940;-61
2023/08/30 12:39:31;;;;;;;;;;;20.30;58.00;;;;;;5046303;28;19932;-62
2023/08/30 12:41:59;;;;;;;;;;;20.30;57.90;;;;;;5047232;28;19936;-61
2023/08/30 12:44:26;;;;;;;;;;;20.40;57.90;;;;;;5048140;28;19943;-63
2023/08/30 12:46:53;;;;;;;;;;;20.40;57.30;;;;;;5044427;28;20028;-62
2023/08/30 12:49:20;;;;;;;;;;;20.40;57.20;;;;;;5046505;28;19929;-64
2023/08/30 12:51:48;;;;;;;;;;;20.40;57.50;;;;;;5049262;28;19925;-63
2023/08/30 12:54:14;;;;;;;;;;;20.40;57.00;;;;;;5049527;28;19933;-60
2023/08/30 12:56:41;;;;;;;;;;;20.50;57.40;;;;;;5048420;28;19932;-59
2023/08/30 12:59:09;;;;;;;;;;;20.50;57.20;;;;;;5049624;28;19929;-60
2023/08/30 13:01:35;;;;;;;;;;;20.50;56.90;;;;;;5044959;28;19951;-61
2023/08/30 13:04:07;;;;;;;;;;;20.50;57.60;;;;;;5048295;28;19937;-60
2023/08/30 13:06:34;;;;;;;;;;;20.50;57.30;;;;;;5047078;28;19933;-61
2023/08/30 13:09:03;;;;;;;;;;;20.40;57.00;;;;;;5046286;28;20407;-61
2023/08/30 13:11:32;;;;;;;;;;;20.40;56.40;;;;;;5047995;28;19948;-58
2023/08/30 13:13:59;;;;;;;;;;;20.40;57.20;;;;;;5049119;28;20405;-61
2023/08/30 13:16:26;;;;;;;;;;;20.40;57.30;;;;;;5047508;28;19925;-60
2023/08/30 13:18:53;;;;;;;;;;;20.40;57.40;;;;;;5048423;28;19936;-60
2023/08/30 13:21:21;;;;;;;;;;;20.40;57.20;;;;;;5048977;28;19933;-60
2023/08/30 13:24:06;;;;;;;;;;;20.40;57.20;;;;;;5041428;28;19940;-59
2023/08/30 13:26:33;;;;;;;;;;;20.40;57.50;;;;;;5051615;28;20365;-64
2023/08/30 13:29:02;;;;;;;;;;;20.40;57.40;;;;;;5048785;28;20019;-60
2023/08/30 13:31:30;;;;;;;;;;;20.40;57.40;;;;;;5044104;28;19933;-60
2023/08/30 13:33:59;;;;;;;;;;;20.40;57.60;;;;;;5042456;28;19943;-63
2023/08/30 13:36:26;;;;;;;;;;;20.50;57.60;;;;;;5044230;28;19947;-61
2023/08/30 13:38:56;;;;;;;;;;;20.40;57.40;;;;;;5046380;28;19944;-60
2023/08/30 13:41:23;;;;;;;;;;;20.40;57.40;;;;;;5029403;28;19933;-61
2023/08/30 13:43:50;;;;;;;;;;;20.40;57.30;;;;;;5045362;28;20465;-64
2023/08/30 13:46:17;;;;;;;;;;;20.50;58.00;;;;;;5045756;28;19925;-61
2023/08/30 13:48:45;;;;;;;;;;;20.50;57.70;;;;;;5043938;28;20304;-61
2023/08/30 13:51:12;;;;;;;;;;;20.50;57.50;;;;;;5043015;28;20023;-60
2023/08/30 13:53:39;;;;;;;;;;;20.50;57.80;;;;;;5042454;28;19951;-60
2023/08/30 13:56:07;;;;;;;;;;;20.60;57.90;;;;;;5043890;28;19972;-61
2023/08/30 13:58:34;;;;;;;;;;;20.60;57.50;;;;;;5041030;28;19929;-61
2023/08/30 14:01:01;;;;;;;;;;;20.60;57.70;;;;;;5042848;28;19971;-60
2023/08/30 14:03:28;;;;;;;;;;;20.60;57.30;;;;;;5043347;28;20836;-61
2023/08/30 14:05:55;;;;;;;;;;;20.70;63.00;;;;;;5045931;28;19978;-60
2023/08/30 14:08:22;;;;;;;;;;;21.00;71.20;;;;;;5045412;28;19976;-61
2023/08/30 14:10:49;;;;;;;;;;;21.40;73.60;;;;;;5044731;28;20290;-60
2023/08/30 14:13:16;;;;;;;;;;;21.70;74.70;;;;;;5045111;28;19929;-61
2023/08/30 14:15:43;;;;;;;;;;;22.10;74.70;;;;;;5050348;28;19979;-61
2023/08/30 14:18:10;;;;;;;;;;;22.40;74.50;;;;;;5050116;28;19975;-61
2023/08/30 14:20:41;;;;;;;;;;;22.70;74.30;;;;;;5049608;28;19933;-62
2023/08/30 14:23:09;;;;;;;;;;;23.00;73.70;;;;;;5048107;28;19929;-62
2023/08/30 14:25:37;;;;;;;;;;;23.30;73.10;;;;;;5048369;28;19939;-59
2023/08/30 14:28:04;;;;;;;;;;;23.40;72.50;;;;;;5048642;28;19971;-63
2023/08/30 14:30:31;;;;;;;;;;;23.60;72.00;;;;;;5054892;28;19928;-63
2023/08/30 14:32:59;;;;;;;;;;;23.80;71.80;;;;;;5048134;28;20373;-65
2023/08/30 14:35:25;;;;;;;;;;;24.00;71.60;;;;;;5047675;28;19925;-62
2023/08/30 14:37:52;;;;;;;;;;;24.20;71.60;;;;;;5050931;28;19960;-62
2023/08/30 14:40:19;;;;;;;;;;;24.30;70.60;;;;;;5053878;28;19960;-64
2023/08/30 14:42:46;;;;;;;;;;;24.40;70.60;;;;;;5064849;28;19978;-62
2023/08/30 14:45:14;;;;;;;;;;;24.50;70.70;;;;;;5063552;28;20373;-63
2023/08/30 14:47:41;;;;;;;;;;;24.50;70.70;;;;;;5072422;28;19932;-62
2023/08/30 14:50:08;;;;;;;;;;;24.60;70.80;;;;;;5062055;28;19924;-64
2023/08/30 14:52:35;;;;;;;;;;;24.70;70.60;;;;;;5072409;28;20027;-63
2023/08/30 14:55:02;;;;;;;;;;;24.70;71.00;;;;;;5045476;28;19932;-62
2023/08/30 14:57:29;;;;;;;;;;;24.80;70.70;;;;;;5060718;28;19960;-60
2023/08/30 14:59:56;;;;;;;;;;;24.90;70.50;;;;;;5060145;28;19925;-59
2023/08/30 15:02:23;;;;;;;;;;;24.90;70.50;;;;;;5072471;28;19932;-60
2023/08/30 15:04:50;;;;;;;;;;;24.90;70.10;;;;;;5057911;28;19975;-59
2023/08/30 15:07:17;;;;;;;;;;;25.10;69.90;;;;;;5049684;28;20064;-60
2023/08/30 15:09:44;;;;;;;;;;;25.10;69.30;;;;;;5058842;28;19975;-60
2023/08/30 15:12:11;;;;;;;;;;;25.10;69.30;;;;;;5049122;28;20023;-60
2023/08/30 15:14:40;;;;;;;;;;;25.20;69.60;;;;;;5052348;28;19956;-60
2023/08/30 15:17:07;;;;;;;;;;;25.20;69.70;;;;;;5052009;28;20342;-61
2023/08/30 15:19:34;;;;;;;;;;;25.30;70.20;;;;;;5051727;28;20008;-61
2023/08/30 15:22:01;;;;;;;;;;;25.30;70.20;;;;;;5051546;28;19975;-60
2023/08/30 15:24:29;;;;;;;;;;;25.40;70.20;;;;;;5051500;28;19925;-61
2023/08/30 15:26:56;;;;;;;;;;;25.40;69.80;;;;;;5051434;28;20275;-60
2023/08/30 15:29:23;;;;;;;;;;;25.50;69.90;;;;;;5053992;28;19986;-60
2023/08/30 15:31:52;;;;;;;;;;;25.50;69.90;;;;;;5048852;28;19971;-59
2023/08/30 15:34:20;;;;;;;;;;;25.60;69.70;;;;;;5054745;28;19924;-61
2023/08/30 15:36:47;;;;;;;;;;;25.60;69.10;;;;;;5050872;28;20020;-60
2023/08/30 15:39:16;;;;;;;;;;;25.70;69.30;;;;;;5051595;28;20020;-61
2023/08/30 15:41:44;;;;;;;;;;;25.70;69.10;;;;;;5051079;28;20355;-61
2023/08/30 15:44:11;;;;;;;;;;;25.70;69.10;;;;;;5052455;28;20465;-60
2023/08/30 15:46:38;;;;;;;;;;;25.70;69.00;;;;;;5051076;28;20027;-61
2023/08/30 15:49:05;;;;;;;;;;;25.80;68.80;;;;;;5050842;28;19929;-60
2023/08/30 15:51:32;;;;;;;;;;;25.80;68.50;;;;;;5051457;28;20094;-60
2023/08/30 15:53:59;;;;;;;;;;;25.80;67.90;;;;;;5046918;28;19925;-61
2023/08/30 15:56:26;;;;;;;;;;;25.80;67.40;;;;;;5051035;28;20391;-60
2023/08/30 15:58:53;;;;;;;;;;;25.80;66.90;;;;;;5053610;28;19936;-60
2023/08/30 16:01:20;;;;;;;;;;;25.80;66.30;;;;;;5052602;28;20357;-60
2023/08/30 16:03:47;;;;;;;;;;;25.80;66.00;;;;;;5052611;28;20205;-61
2023/08/30 16:06:14;;;;;;;;;;;25.80;65.30;;;;;;5053496;28;19970;-61
2023/08/30 16:08:41;;;;;;;;;;;25.80;64.80;;;;;;5054625;28;20370;-60
2023/08/30 16:11:08;;;;;;;;;;;25.80;64.10;;;;;;5053897;28;19968;-60
2023/08/30 16:13:35;;;;;;;;;;;25.80;63.50;;;;;;5055736;28;20332;-60
2023/08/30 16:16:02;;;;;;;;;;;25.90;62.80;;;;;;5053172;28;19967;-60
2023/08/30 16:18:29;;;;;;;;;;;25.90;62.10;;;;;;5054310;28;19931;-61
2023/08/30 16:20:56;;;;;;;;;;;25.90;61.60;;;;;;5055096;28;19928;-61
2023/08/30 16:23:26;;;;;;;;;;;26.00;60.90;;;;;;5054618;28;20040;-61
2023/08/30 16:25:59;;;;;;;;;;;26.00;60.40;;;;;;5053943;28;19937;-60
2023/08/30 16:28:26;;;;;;;;;;;26.00;59.70;;;;;;5051808;28;19925;-61
2023/08/30 16:31:04;;;;;;;;;;;26.10;59.10;;;;;;5053643;28;19979;-60
2023/08/30 16:33:32;;;;;;;;;;;26.10;58.40;;;;;;5050319;28;19999;-60
2023/08/30 16:36:02;;;;;;;;;;;26.10;58.00;;;;;;5057183;28;19929;-60
2023/08/30 16:38:29;;;;;;;;;;;26.10;57.50;;;;;;5054644;28;20273;-60
2023/08/30 16:41:02;;;;;;;;;;;26.20;57.20;;;;;;5056217;28;19931;-60
2023/08/30 16:43:29;;;;;;;;;;;26.20;57.00;;;;;;5054777;28;20329;-60
2023/08/30 16:45:57;;;;;;;;;;;26.20;56.80;;;;;;5053528;28;20292;-61
2023/08/30 16:48:25;;;;;;;;;;;26.30;56.70;;;;;;5054077;28;19929;-61
2023/08/30 16:50:52;;;;;;;;;;;26.20;56.50;;;;;;5052238;28;20463;-61
2023/08/30 16:53:19;;;;;;;;;;;26.20;56.40;;;;;;5056419;28;20023;-61
2023/08/30 16:55:46;;;;;;;;;;;26.20;56.20;;;;;;5051915;28;19932;-62
2023/08/30 16:58:13;;;;;;;;;;;26.20;56.10;;;;;;5054373;28;19994;-61
2023/08/30 17:00:40;;;;;;;;;;;26.20;56.10;;;;;;5052081;28;19925;-61
2023/08/30 17:03:07;;;;;;;;;;;26.20;56.00;;;;;;5054011;28;19932;-62
2023/08/30 17:05:39;;;;;;;;;;;26.20;55.90;;;;;;5052211;28;19925;-62
2023/08/30 17:08:06;;;;;;;;;;;26.20;55.90;;;;;;5053926;28;19929;-61
2023/08/30 17:10:33;;;;;;;;;;;26.20;55.90;;;;;;5057308;28;19924;-62
2023/08/30 17:13:03;;;;;;;;;;;26.20;55.90;;;;;;5052558;28;19925;-62
2023/08/30 17:15:31;;;;;;;;;;;26.20;55.90;;;;;;5051606;28;20023;-61
2023/08/30 17:17:58;;;;;;;;;;;26.20;55.90;;;;;;5054528;28;19933;-61
2023/08/30 17:20:25;;;;;;;;;;;26.10;55.80;;;;;;5053512;28;19971;-62
2023/08/30 17:22:52;;;;;;;;;;;26.10;55.90;;;;;;5053641;28;19933;-62
2023/08/30 17:25:19;;;;;;;;;;;26.10;55.80;;;;;;5052775;28;19925;-61
2023/08/30 17:27:46;;;;;;;;;;;26.10;55.80;;;;;;5053449;28;19925;-62
2023/08/30 17:30:13;;;;;;;;;;;26.10;55.90;;;;;;5053734;28;19929;-62
2023/08/30 17:32:40;;;;;;;;;;;26.10;55.90;;;;;;5054092;28;19925;-62
2023/08/30 17:35:07;;;;;;;;;;;26.10;55.90;;;;;;5053939;28;19925;-62
2023/08/30 17:37:34;;;;;;;;;;;26.00;55.90;;;;;;5053833;28;19932;-62
2023/08/30 17:40:04;;;;;;;;;;;26.00;55.90;;;;;;5053991;28;19928;-62
2023/08/30 17:42:32;;;;;;;;;;;26.00;55.90;;;;;;5053945;28;19987;-62
2023/08/30 17:44:59;;;;;;;;;;;26.00;55.90;;;;;;5053352;28;19929;-62
2023/08/30 17:47:27;;;;;;;;;;;26.00;55.90;;;;;;5051351;28;19925;-62
2023/08/30 17:49:54;;;;;;;;;;;26.00;55.90;;;;;;5053239;28;20361;-62
2023/08/30 17:52:21;;;;;;;;;;;25.90;55.90;;;;;;5049201;28;19936;-62
2023/08/30 17:54:48;;;;;;;;;;;26.00;55.90;;;;;;5056088;28;19987;-62
2023/08/30 17:57:16;;;;;;;;;;;26.00;56.00;;;;;;5053964;28;20266;-62
2023/08/30 17:59:43;;;;;;;;;;;25.90;55.90;;;;;;5053643;28;19925;-62
2023/08/30 18:02:11;;;;;;;;;;;26.00;56.00;;;;;;5052413;28;19925;-62
2023/08/30 18:04:38;;;;;;;;;;;25.90;55.90;;;;;;5051545;28;19936;-62
2023/08/30 18:07:05;;;;;;;;;;;25.90;55.90;;;;;;5060121;28;19986;-62
2023/08/30 18:09:32;;;;;;;;;;;25.90;56.00;;;;;;5054993;28;20025;-63
2023/08/30 18:11:59;;;;;;;;;;;25.90;55.90;;;;;;5039337;28;20043;-62
2023/08/30 18:14:26;;;;;;;;;;;25.90;55.90;;;;;;5033167;28;19925;-61
2023/08/30 18:16:53;;;;;;;;;;;25.90;56.00;;;;;;5052191;28;20031;-62
2023/08/30 18:19:23;;;;;;;;;;;25.90;56.00;;;;;;5032944;28;19929;-62
2023/08/30 18:21:50;;;;;;;;;;;25.90;56.00;;;;;;5041260;28;20428;-63
2023/08/30 18:24:18;;;;;;;;;;;25.90;56.00;;;;;;5030252;28;20262;-62
2023/08/30 18:26:49;;;;;;;;;;;25.80;56.00;;;;;;5025766;28;19960;-61
2023/08/30 18:29:18;;;;;;;;;;;25.80;56.00;;;;;;5019624;28;19925;-62
2023/08/30 18:31:45;;;;;;;;;;;25.80;56.00;;;;;;5049869;28;19925;-62
2023/08/30 18:34:13;;;;;;;;;;;25.90;56.10;;;;;;5053462;28;19929;-62
2023/08/30 18:36:40;;;;;;;;;;;25.80;56.00;;;;;;5029876;28;19926;-62
2023/08/30 18:39:08;;;;;;;;;;;25.80;56.00;;;;;;5027147;28;20289;-62
2023/08/30 18:41:36;;;;;;;;;;;25.80;56.00;;;;;;5031869;28;20374;-61
2023/08/30 18:44:03;;;;;;;;;;;25.80;56.00;;;;;;5033599;28;20004;-62
2023/08/30 18:46:30;;;;;;;;;;;25.80;56.50;;;;;;5034209;28;19932;-62
2023/08/30 18:48:58;;;;;;;;;;;25.80;55.90;;;;;;5033145;28;19925;-62
2023/08/30 18:51:24;;;;;;;;;;;25.90;56.00;;;;;;5046115;28;19987;-62
2023/08/30 18:53:51;;;;;;;;;;;25.80;55.90;;;;;;5053345;28;19979;-61
2023/08/30 18:56:19;;;;;;;;;;;25.90;56.00;;;;;;5053361;28;20277;-61
2023/08/30 18:58:46;;;;;;;;;;;25.80;55.90;;;;;;5035558;28;19925;-62
2023/08/30 19:01:14;;;;;;;;;;;25.90;56.00;;;;;;5030270;28;19936;-62
2023/08/30 19:03:41;;;;;;;;;;;25.80;55.90;;;;;;5032136;28;19987;-63
2023/08/30 19:06:10;;;;;;;;;;;25.80;55.80;;;;;;5035468;28;20356;-62
2023/08/30 19:08:37;;;;;;;;;;;25.80;55.80;;;;;;5044754;28;20286;-61
2023/08/30 19:11:05;;;;;;;;;;;25.90;55.90;;;;;;5041428;28;20008;-62
2023/08/30 19:13:32;;;;;;;;;;;25.90;55.90;;;;;;5052537;28;19935;-61
2023/08/30 19:16:00;;;;;;;;;;;25.80;55.80;;;;;;5052794;28;19925;-62
2023/08/30 19:18:27;;;;;;;;;;;25.80;55.80;;;;;;5072488;28;19968;-61
2023/08/30 19:20:59;;;;;;;;;;;25.80;55.80;;;;;;5065180;28;19940;-61
2023/08/30 19:23:27;;;;;;;;;;;25.90;55.90;;;;;;5051058;28;19932;-61
2023/08/30 19:25:55;;;;;;;;;;;25.90;56.40;;;;;;5052351;28;20314;-62